Terminal Aerodrome Forecast
Issued by NWS Pendleton, OR

Home | Current Version | Previous Version | Text Only | Print | Product List | Glossary On
Versions: 1 2 3 4 5 6 7 8 9 10 11 12 13 14
000
FTUS46 KPDT 180300 AAA
TAFPDT
TAF AMD
KPDT 180310Z 1803/1824 16010KT P6SM BKN050 OVC070
     FM180500 25015G25KT P6SM SCT050
     FM181500 24018G27KT P6SM SKC
     FM182100 28015G25KT P6SM FEW250=

USA.gov is the U.S. government's official web portal to all federal, state and local government web resources and services.